Time;durP1;ratioP1;P1;durP2;ratioP2;P2;SDS_P1;SDS_P2;PMS_P1;PMS_P2;Temp;Humidity;BMP_temperature;BMP_pressure;BME280_temperature;BME280_humidity;BME280_pressure;Samples;Min_cycle;Max_cycle;Signal;HPM_P1;HPM_P2
2022/03/27 00:01:56;;;;;;;11.82;8.95;;;;;;;12.23;66.49;100247.06;5014756;28;20056;-79
2022/03/27 00:04:21;;;;;;;12.18;10.10;;;;;;;12.26;65.49;100246.63;5001139;28;20044;-80
2022/03/27 00:06:46;;;;;;;13.43;10.65;;;;;;;12.19;65.78;100234.38;5031652;28;20075;-80
2022/03/27 00:09:11;;;;;;;12.10;10.35;;;;;;;12.19;65.16;100245.09;5031584;28;20090;-79
2022/03/27 00:11:37;;;;;;;11.57;9.52;;;;;;;12.21;64.90;100243.78;5012621;28;20029;-79
2022/03/27 00:14:05;;;;;;;14.27;10.80;;;;;;;12.21;65.43;100249.13;5012243;28;20037;-79
2022/03/27 00:16:31;;;;;;;13.45;10.73;;;;;;;12.19;65.22;100253.13;5013055;28;20033;-79
2022/03/27 00:18:57;;;;;;;12.30;10.05;;;;;;;12.17;64.92;100247.13;5013514;28;20029;-79
2022/03/27 00:21:23;;;;;;;12.77;10.77;;;;;;;12.13;65.21;100256.66;4996484;28;20032;-80
2022/03/27 00:23:49;;;;;;;12.00;9.75;;;;;;;12.16;64.53;100254.38;5014078;28;20032;-79
2022/03/27 00:26:15;;;;;;;14.90;11.15;;;;;;;12.18;64.69;100256.81;5031656;28;20104;-79
2022/03/27 00:28:42;;;;;;;16.05;11.57;;;;;;;12.11;64.86;100256.06;5031397;28;20033;-79
2022/03/27 00:31:09;;;;;;;12.70;10.75;;;;;;;12.13;64.72;100244.09;5029205;28;20022;-80
2022/03/27 00:33:35;;;;;;;12.55;10.70;;;;;;;12.09;64.67;100250.13;4999479;28;20052;-79
2022/03/27 00:36:03;;;;;;;16.60;11.82;;;;;;;12.07;64.75;100246.84;5013912;28;20037;-79
2022/03/27 00:38:29;;;;;;;15.90;11.27;;;;;;;12.01;65.03;100248.59;4992788;28;20383;-80
2022/03/27 00:40:54;;;;;;;15.10;11.43;;;;;;;12.10;64.91;100241.88;5016577;28;20474;-80
2022/03/27 00:43:21;;;;;;;15.90;12.13;;;;;;;12.05;65.47;100249.75;5030649;28;20032;-80
2022/03/27 00:45:47;;;;;;;17.35;11.00;;;;;;;11.99;65.33;100256.03;5030137;28;20486;-79
2022/03/27 00:48:13;;;;;;;12.40;9.77;;;;;;;11.98;64.55;100249.84;5012690;28;20037;-79
2022/03/27 00:50:39;;;;;;;13.88;11.35;;;;;;;11.96;64.74;100243.06;5013025;28;20389;-80
2022/03/27 00:53:05;;;;;;;12.63;10.00;;;;;;;11.96;64.43;100256.44;5013697;28;20017;-80
2022/03/27 00:55:30;;;;;;;15.25;11.90;;;;;;;11.95;64.72;100250.28;5009984;28;20043;-80
2022/03/27 00:57:55;;;;;;;14.73;11.40;;;;;;;11.92;64.70;100252.59;4999514;28;20030;-80
2022/03/27 01:00:41;;;;;;;14.50;10.65;;;;;;;11.93;64.39;100252.34;4996524;28;20628;-80
2022/03/27 01:03:12;;;;;;;16.27;11.30;;;;;;;11.94;64.30;100253.19;5033095;28;20030;-80
2022/03/27 01:05:38;;;;;;;11.40;9.93;;;;;;;11.96;64.49;100251.09;5031851;28;20024;-80
2022/03/27 01:08:10;;;;;;;13.90;10.27;;;;;;;11.93;nan;100252.34;5013622;28;20033;-80
2022/03/27 01:10:35;;;;;;;14.30;11.15;;;;;;;11.87;64.80;100242.56;5014205;28;20040;-80
2022/03/27 01:13:19;;;;;;;14.27;11.52;;;;;;;11.86;64.64;100248.94;5034564;28;20036;-80
2022/03/27 01:15:57;;;;;;;15.70;12.55;;;;;;;11.82;65.29;100242.38;5031316;28;20116;-80
2022/03/27 01:18:23;;;;;;;15.30;11.60;;;;;;;11.82;64.68;100244.25;4993136;28;20030;-78
2022/03/27 01:20:49;;;;;;;13.45;11.30;;;;;;;11.80;64.58;100246.31;5027077;28;20051;-78
2022/03/27 01:23:15;;;;;;;15.98;11.85;;;;;;;11.83;65.17;100253.91;5012149;28;20033;-78
2022/03/27 01:25:43;;;;;;;17.50;11.73;;;;;;;11.80;64.78;100244.47;5028795;28;20033;-78
2022/03/27 01:28:14;;;;;;;14.77;12.30;;;;;;;11.79;65.02;100245.53;5027183;28;20037;-78
2022/03/27 01:30:40;;;;;;;16.50;13.63;;;;;;;11.78;64.81;100251.91;5028218;28;20032;-78
2022/03/27 01:33:09;;;;;;;16.45;12.48;;;;;;;11.73;65.34;100249.06;5010620;28;20037;-78
2022/03/27 01:35:35;;;;;;;16.48;12.43;;;;;;;11.76;65.67;100245.13;5029845;28;20048;-79
2022/03/27 01:38:00;;;;;;;15.60;13.18;;;;;;;11.76;65.15;100245.13;5010487;28;20540;-78
2022/03/27 01:40:26;;;;;;;15.70;12.85;;;;;;;11.71;65.62;100245.81;5027427;28;20035;-79
2022/03/27 01:42:55;;;;;;;16.13;11.75;;;;;;;11.69;65.31;100242.53;5030668;28;20037;-79
2022/03/27 01:45:20;;;;;;;12.70;10.35;;;;;;;11.67;64.64;100241.09;5008529;28;20384;-79
2022/03/27 01:47:46;;;;;;;14.15;11.68;;;;;;;11.72;64.83;100244.78;5033710;28;20116;-79
2022/03/27 01:50:11;;;;;;;16.90;13.75;;;;;;;11.72;64.54;100251.97;5011185;28;20490;-79
2022/03/27 01:52:37;;;;;;;15.85;12.02;;;;;;;11.68;64.94;100246.25;5031497;28;20062;-79
2022/03/27 01:55:05;;;;;;;14.82;12.50;;;;;;;11.62;64.99;100247.09;5030062;28;20028;-79
2022/03/27 01:57:30;;;;;;;18.83;13.07;;;;;;;11.55;65.76;100243.69;5032415;28;20117;-79
2022/03/27 01:59:56;;;;;;;15.65;12.80;;;;;;;11.61;65.90;100242.78;5011705;28;20509;-79
2022/03/27 02:02:24;;;;;;;16.98;13.07;;;;;;;11.60;66.44;100254.50;5023265;28;20034;-79
2022/03/27 02:04:53;;;;;;;14.55;12.05;;;;;;;11.58;65.75;100240.56;4996596;28;20022;-79
2022/03/27 02:07:22;;;;;;;14.35;11.50;;;;;;;11.61;65.03;100242.78;5029424;28;21491;-79
2022/03/27 02:09:48;;;;;;;14.55;11.82;;;;;;;11.56;64.95;100247.16;5031311;28;20041;-79
2022/03/27 02:12:13;;;;;;;13.70;12.27;;;;;;;11.59;65.52;100246.72;5027627;28;20036;-79
2022/03/27 02:14:39;;;;;;;16.88;12.05;;;;;;;11.53;65.19;100240.38;5029255;28;20033;-78
2022/03/27 02:17:05;;;;;;;13.85;11.85;;;;;;;11.64;64.77;100242.34;5029183;28;20033;-78
2022/03/27 02:19:30;;;;;;;14.93;12.30;;;;;;;11.54;65.16;100234.00;5015661;28;20052;-78
2022/03/27 02:21:55;;;;;;;15.15;12.10;;;;;;;11.57;65.10;100243.47;5015243;28;20371;-77
2022/03/27 02:24:21;;;;;;;13.18;11.38;;;;;;;11.55;64.88;100241.00;5034710;28;20025;-79
2022/03/27 02:26:49;;;;;;;15.52;12.05;;;;;;;11.54;65.03;100247.38;5014036;28;20041;-78
2022/03/27 02:29:16;;;;;;;16.92;11.63;;;;;;;11.50;65.59;100248.03;5014357;28;20108;-78
2022/03/27 02:31:42;;;;;;;22.50;12.75;;;;;;;11.52;65.23;100241.44;5031396;28;20060;-78
2022/03/27 02:34:07;;;;;;;15.07;11.15;;;;;;;11.53;65.58;100243.06;5009794;28;20029;-78
2022/03/27 02:36:32;;;;;;;13.68;11.52;;;;;;;11.46;65.46;100238.81;5027843;28;20110;-78
2022/03/27 02:38:58;;;;;;;15.65;11.00;;;;;;;11.49;65.38;100241.06;5030131;28;20133;-78
2022/03/27 02:41:23;;;;;;;16.33;11.30;;;;;;;11.46;65.19;100238.81;4993620;28;20052;-78
2022/03/27 02:43:49;;;;;;;17.20;11.45;;;;;;;11.46;64.58;100258.38;5011769;28;20049;-78
2022/03/27 02:46:14;;;;;;;13.00;10.68;;;;;;;11.42;65.09;100251.84;5025179;28;20067;-78
2022/03/27 02:48:39;;;;;;;12.85;11.30;;;;;;;11.44;65.09;100244.41;5011208;28;20044;-78
2022/03/27 02:51:05;;;;;;;15.40;11.55;;;;;;;11.36;65.87;100233.19;5027410;28;20541;-78
2022/03/27 02:53:30;;;;;;;14.38;11.55;;;;;;;11.43;65.66;100244.59;5030580;28;20029;-80
2022/03/27 02:55:56;;;;;;;12.02;10.30;;;;;;;11.45;64.88;100243.34;5012871;28;20040;-79
2022/03/27 02:58:21;;;;;;;14.82;10.95;;;;;;;11.43;65.40;100239.25;5017748;28;20041;-80
2022/03/27 03:00:46;;;;;;;16.40;11.85;;;;;;;11.44;65.69;100235.56;5033788;28;20052;-79
2022/03/27 03:03:13;;;;;;;15.30;11.57;;;;;;;11.40;65.22;100237.84;5034093;28;20061;-78
2022/03/27 03:05:40;;;;;;;14.10;10.93;;;;;;;11.40;65.39;100239.72;5014600;28;20428;-78
2022/03/27 03:08:11;;;;;;;13.57;11.40;;;;;;;11.38;66.03;100231.88;5029856;28;20021;-78
2022/03/27 03:10:41;;;;;;;15.68;11.75;;;;;;;11.36;65.91;100233.97;5012115;28;20065;-78
2022/03/27 03:13:08;;;;;;;18.73;12.23;;;;;;;11.32;65.67;100238.13;5032123;28;20033;-79
2022/03/27 03:15:35;;;;;;;13.68;10.88;;;;;;;11.33;65.48;100235.22;5028796;28;20033;-79
2022/03/27 03:18:00;;;;;;;18.40;12.82;;;;;;;11.32;66.19;100227.44;4997234;28;20069;-78
2022/03/27 03:20:26;;;;;;;14.88;11.77;;;;;;;11.33;65.93;100235.22;5030510;28;20049;-79
2022/03/27 03:22:51;;;;;;;14.90;11.63;;;;;;;11.29;65.51;100231.34;5032762;28;21544;-80
2022/03/27 03:25:17;;;;;;;14.85;11.73;;;;;;;11.25;65.78;100232.84;5013082;28;20036;-79
2022/03/27 03:27:42;;;;;;;18.35;12.43;;;;;;;11.27;66.01;100227.25;5032065;28;20042;-80
2022/03/27 03:30:09;;;;;;;15.95;12.45;;;;;;;11.24;66.51;100227.72;4997736;28;20044;-80
2022/03/27 03:32:35;;;;;;;15.02;11.25;;;;;;;11.22;65.75;100222.59;5032346;28;20037;-80
2022/03/27 03:35:01;;;;;;;14.88;11.23;;;;;;;11.17;65.31;100219.75;5030265;28;20021;-79
2022/03/27 03:37:26;;;;;;;16.15;11.70;;;;;;;11.21;65.21;100222.78;5028580;28;20159;-79
2022/03/27 03:39:52;;;;;;;14.35;11.32;;;;;;;11.26;65.69;100217.63;5012585;28;20041;-79
2022/03/27 03:42:17;;;;;;;16.92;11.73;;;;;;;11.19;65.90;100222.19;5029414;28;20036;-79
2022/03/27 03:44:43;;;;;;;15.57;10.63;;;;;;;11.21;65.63;100222.78;5030014;28;20037;-79
2022/03/27 03:47:09;;;;;;;15.10;11.60;;;;;;;11.26;66.22;100226.47;5030764;28;20057;-79
2022/03/27 03:49:35;;;;;;;15.57;11.95;;;;;;;11.20;65.60;100223.84;5001255;28;20029;-79
2022/03/27 03:52:00;;;;;;;14.07;11.77;;;;;;;11.18;65.82;100220.59;5010562;28;20116;-80
2022/03/27 03:54:25;;;;;;;15.35;11.52;;;;;;;11.20;65.68;100221.97;5030740;28;20021;-80
2022/03/27 03:56:51;;;;;;;14.57;11.10;;;;;;;11.24;65.54;100220.53;5015490;28;20049;-81
2022/03/27 03:59:17;;;;;;;16.42;11.70;;;;;;;11.19;66.11;100222.19;5034377;28;20049;-81
2022/03/27 04:01:42;;;;;;;18.75;12.40;;;;;;;11.14;65.70;100227.38;5032426;28;20044;-80
2022/03/27 04:04:07;;;;;;;18.63;13.18;;;;;;;11.17;66.53;100235.78;4999715;28;20033;-81
2022/03/27 04:06:33;;;;;;;16.50;12.40;;;;;;;11.12;66.38;100232.94;5031497;28;20034;-81
2022/03/27 04:08:58;;;;;;;14.57;11.95;;;;;;;11.15;66.01;100232.53;5028629;28;20043;-81
2022/03/27 04:11:24;;;;;;;17.17;12.38;;;;;;;11.13;65.58;100228.44;5015377;28;21961;-81
2022/03/27 04:13:49;;;;;;;19.25;12.10;;;;;;;11.06;66.22;100233.00;4997107;28;20033;-80
2022/03/27 04:16:15;;;;;;;16.02;11.95;;;;;;;11.09;65.96;100229.91;4996283;28;20112;-81
2022/03/27 04:18:40;;;;;;;25.20;13.88;;;;;;;11.06;66.15;100233.81;4999669;28;20033;-81
2022/03/27 04:21:06;;;;;;;18.40;13.07;;;;;;;11.05;65.84;100229.50;5031725;28;20033;-79
2022/03/27 04:23:31;;;;;;;22.75;12.32;;;;;;;11.05;65.64;100234.84;5011583;28;20041;-79
2022/03/27 04:25:57;;;;;;;20.75;13.10;;;;;;;11.02;65.99;100242.47;5029279;28;20033;-79
2022/03/27 04:28:22;;;;;;;16.73;12.73;;;;;;;11.03;66.32;100233.44;5011933;28;20040;-79
2022/03/27 04:30:47;;;;;;;21.33;12.77;;;;;;;11.09;66.13;100241.41;5013150;28;20452;-79
2022/03/27 04:33:13;;;;;;;20.35;13.00;;;;;;;11.05;66.03;100237.50;5013339;28;20040;-79
2022/03/27 04:35:38;;;;;;;18.30;12.77;;;;;;;11.03;65.99;100236.13;5013650;28;20038;-79
2022/03/27 04:38:04;;;;;;;21.58;13.50;;;;;;;11.01;66.25;100230.16;5032086;28;20029;-80
2022/03/27 04:40:29;;;;;;;23.02;13.52;;;;;;;10.99;66.58;100230.38;4999158;28;20029;-80
2022/03/27 04:42:55;;;;;;;19.58;13.98;;;;;;;11.03;66.44;100238.78;5014034;28;20049;-79
2022/03/27 04:45:20;;;;;;;21.48;13.85;;;;;;;11.05;66.21;100236.72;4994880;28;21596;-80
2022/03/27 04:47:46;;;;;;;22.58;14.38;;;;;;;10.97;66.56;100228.94;4996656;28;20029;-80
2022/03/27 04:50:11;;;;;;;20.90;13.05;;;;;;;11.02;66.17;100235.28;5010968;28;20044;-80
2022/03/27 04:52:37;;;;;;;20.15;12.98;;;;;;;11.05;65.91;100226.03;5029773;28;20478;-80
2022/03/27 04:55:03;;;;;;;19.80;13.45;;;;;;;11.03;65.79;100220.09;5026663;28;20021;-79
2022/03/27 04:57:35;;;;;;;22.58;13.45;;;;;;;10.95;66.09;100223.00;5029111;28;20044;-79
2022/03/27 05:00:01;;;;;;;24.30;14.93;;;;;;;10.90;66.03;100231.66;5012254;28;21640;-79
2022/03/27 05:02:27;;;;;;;23.95;15.02;;;;;;;10.92;66.32;100226.13;5010646;28;20067;-79
2022/03/27 05:04:52;;;;;;;23.70;15.13;;;;;;;10.97;65.68;100223.59;4992515;28;20021;-79
2022/03/27 05:07:17;;;;;;;21.35;14.77;;;;;;;10.88;66.32;100220.38;5009185;28;20349;-79
2022/03/27 05:09:42;;;;;;;23.30;15.15;;;;;;;10.95;66.39;100236.38;5009685;28;20037;-79
2022/03/27 05:12:09;;;;;;;24.55;16.30;;;;;;;10.99;65.59;100232.22;5010921;28;20037;-78
2022/03/27 05:14:34;;;;;;;26.00;16.67;;;;;;;10.95;66.22;100226.50;4996313;28;20037;-78
2022/03/27 05:17:00;;;;;;;26.75;16.40;;;;;;;10.97;65.60;100240.47;5011997;28;20033;-78
2022/03/27 05:19:25;;;;;;;27.15;15.70;;;;;;;10.93;65.63;100227.75;5009733;28;20497;-78
2022/03/27 05:21:50;;;;;;;23.83;13.90;;;;;;;10.95;65.50;100231.84;5028858;28;20030;-78
2022/03/27 05:24:16;;;;;;;26.52;15.95;;;;;;;10.84;66.15;100231.72;4995703;28;20033;-78
2022/03/27 05:26:41;;;;;;;21.77;14.75;;;;;;;10.88;65.61;100236.41;5012822;28;20025;-78
2022/03/27 05:29:08;;;;;;;25.50;15.50;;;;;;;10.82;65.74;100237.28;5011026;28;20033;-78
2022/03/27 05:31:33;;;;;;;23.90;15.90;;;;;;;10.88;65.83;100233.75;5009790;28;20033;-78
2022/03/27 05:33:59;;;;;;;23.33;15.07;;;;;;;10.80;66.24;100238.53;4993253;28;20032;-78
2022/03/27 05:36:24;;;;;;;27.88;16.02;;;;;;;10.76;66.29;100248.00;5027748;28;20056;-78
2022/03/27 05:38:50;;;;;;;29.05;17.13;;;;;;;10.68;65.92;100240.25;5029797;28;20025;-79
2022/03/27 05:41:15;;;;;;;29.05;16.80;;;;;;;10.78;66.64;100252.09;5027580;28;20087;-79
2022/03/27 05:43:41;;;;;;;27.10;16.65;;;;;;;10.74;66.24;100247.41;5011574;28;20437;-79
2022/03/27 05:46:07;;;;;;;27.45;17.30;;;;;;;10.76;66.11;100250.69;4996169;28;20069;-79
2022/03/27 05:48:32;;;;;;;23.13;15.48;;;;;;;10.71;66.92;100255.84;5013563;28;20037;-77
2022/03/27 05:50:58;;;;;;;29.45;15.75;;;;;;;10.69;66.48;100249.91;5028897;28;20060;-77
2022/03/27 05:53:23;;;;;;;40.50;23.60;;;;;;;10.72;67.26;100257.50;5015319;28;20034;-77
2022/03/27 05:55:48;;;;;;;38.33;22.60;;;;;;;10.74;67.09;100255.41;5029618;28;20140;-77
2022/03/27 05:58:16;;;;;;;34.78;20.70;;;;;;;10.76;67.53;100261.38;5005160;28;20029;-77
2022/03/27 06:00:42;;;;;;;40.35;23.88;;;;;;;10.67;67.05;100257.31;5005732;28;20034;-77
2022/03/27 06:03:07;;;;;;;34.83;21.15;;;;;;;10.70;66.52;100259.56;5029726;28;20035;-78
2022/03/27 06:05:33;;;;;;;37.28;22.65;;;;;;;10.78;67.28;100265.47;5027030;28;20111;-77
2022/03/27 06:07:59;;;;;;;34.58;21.48;;;;;;;10.75;67.85;100268.56;5028237;28;20040;-77
2022/03/27 06:10:26;;;;;;;35.13;21.83;;;;;;;10.72;67.07;100266.31;5025579;28;20625;-77
2022/03/27 06:12:53;;;;;;;30.77;20.70;;;;;;;10.68;67.66;100267.75;5031929;28;20037;-77
2022/03/27 06:15:20;;;;;;;36.53;21.70;;;;;;;10.70;67.34;100265.72;5026578;28;20041;-78
2022/03/27 06:17:48;;;;;;;34.80;22.58;;;;;;;10.74;67.30;100274.13;5027684;28;20044;-78
2022/03/27 06:20:40;;;;;;;32.53;21.40;;;;;;;10.69;67.28;100271.25;5029403;28;20033;-80
2022/03/27 06:23:06;;;;;;;31.73;20.13;;;;;;;10.70;67.34;100278.25;5023447;28;20037;-79
2022/03/27 06:25:32;;;;;;;31.05;21.75;;;;;;;10.76;67.19;100283.56;5011550;28;20040;-77
2022/03/27 06:27:58;;;;;;;30.88;20.95;;;;;;;10.78;67.26;100278.00;5021041;28;20118;-77
2022/03/27 06:30:27;;;;;;;37.47;22.67;;;;;;;10.77;67.52;100287.84;5024573;28;20536;-78
2022/03/27 06:32:53;;;;;;;37.47;21.60;;;;;;;10.76;67.77;100283.56;5007172;28;20116;-77
2022/03/27 06:35:19;;;;;;;35.60;22.17;;;;;;;10.78;67.24;100276.16;5025260;28;20127;-77
2022/03/27 06:37:46;;;;;;;36.50;20.58;;;;;;;10.77;67.76;100276.38;5006405;28;20758;-79
2022/03/27 06:40:13;;;;;;;31.50;20.48;;;;;;;10.80;67.64;100274.06;5000895;28;20109;-78
2022/03/27 06:42:39;;;;;;;33.28;20.92;;;;;;;10.78;68.05;100265.47;5024555;28;20079;-77
2022/03/27 06:45:05;;;;;;;40.65;23.33;;;;;;;10.75;67.58;100267.72;5026168;28;20029;-78
2022/03/27 06:47:34;;;;;;;34.60;21.15;;;;;;;10.72;68.18;100260.97;5026240;28;20032;-80
2022/03/27 06:50:02;;;;;;;30.73;21.13;;;;;;;10.78;67.54;100261.97;5011436;28;20030;-79
2022/03/27 06:52:28;;;;;;;32.45;19.80;;;;;;;10.85;68.38;100268.91;5011892;28;20029;-79
2022/03/27 06:54:54;;;;;;;32.33;21.20;;;;;;;10.80;68.36;100265.25;5003823;28;20040;-79
2022/03/27 06:57:20;;;;;;;36.22;21.92;;;;;;;10.90;67.44;100277.06;5006543;28;20109;-77
2022/03/27 07:05:14;;;;;;;34.15;19.75;;;;;;;10.98;67.34;100273.34;5026675;28;20034;-80
2022/03/27 07:07:42;;;;;;;35.78;21.27;;;;;;;10.99;67.02;100278.47;5026578;28;20390;-81
2022/03/27 07:10:08;;;;;;;36.10;21.55;;;;;;;11.04;67.54;100283.16;5003946;28;20516;-79
2022/03/27 07:12:33;;;;;;;35.47;21.70;;;;;;;11.04;68.24;100283.16;5027799;28;20086;-79
2022/03/27 07:14:58;;;;;;;40.50;21.40;;;;;;;11.08;67.99;100292.38;5029775;28;20025;-79
2022/03/27 07:17:25;;;;;;;38.97;23.08;;;;;;;11.07;68.63;100280.06;5028908;28;20029;-78
2022/03/27 07:19:51;;;;;;;34.03;21.80;;;;;;;11.12;67.98;100290.91;5009756;28;20151;-78
2022/03/27 07:22:16;;;;;;;37.38;23.15;;;;;;;11.12;68.82;100289.06;5010839;28;20580;-79
2022/03/27 07:24:41;;;;;;;38.35;23.30;;;;;;;11.13;68.57;100289.88;5025913;28;20370;-80
2022/03/27 07:27:08;;;;;;;41.92;24.15;;;;;;;11.11;68.80;100291.97;5028412;28;20255;-78
2022/03/27 07:29:37;;;;;;;36.35;23.52;;;;;;;11.18;68.27;100287.38;5027950;28;20045;-80
2022/03/27 07:32:03;;;;;;;40.90;24.70;;;;;;;11.15;69.14;100291.31;5006018;28;20508;-80
2022/03/27 07:34:28;;;;;;;43.58;23.58;;;;;;;11.17;68.74;100297.25;5007395;28;20300;-80
2022/03/27 07:36:54;;;;;;;38.05;25.25;;;;;;;11.15;68.75;100296.66;4990996;28;20041;-80
2022/03/27 07:39:21;;;;;;;44.20;24.35;;;;;;;11.20;68.60;100288.00;4988847;28;20030;-79
2022/03/27 07:41:46;;;;;;;45.47;23.80;;;;;;;11.22;69.62;100292.09;4991843;28;20565;-79
2022/03/27 07:44:11;;;;;;;44.78;26.13;;;;;;;11.21;69.03;100286.94;4990402;28;20099;-80
2022/03/27 07:46:37;;;;;;;42.88;25.23;;;;;;;11.23;69.42;100291.03;5028940;28;20029;-80
2022/03/27 07:49:03;;;;;;;39.88;25.05;;;;;;;11.22;69.03;100297.44;5015331;28;20060;-79
2022/03/27 07:51:28;;;;;;;39.08;23.85;;;;;;;11.23;68.46;100293.72;5016600;28;20040;-79
2022/03/27 07:53:55;;;;;;;42.80;25.27;;;;;;;11.28;68.85;100290.38;4995609;28;20037;-79
2022/03/27 07:56:20;;;;;;;43.17;24.17;;;;;;;11.32;68.74;100296.94;5013846;28;20037;-80
2022/03/27 07:58:46;;;;;;;36.22;22.98;;;;;;;11.37;69.19;100296.28;5000573;28;20038;-79
2022/03/27 08:01:14;;;;;;;41.22;24.70;;;;;;;11.40;68.50;100299.31;5011105;28;20033;-79
2022/03/27 08:03:43;;;;;;;43.58;25.45;;;;;;;11.40;68.30;100293.97;5012687;28;20033;-79
2022/03/27 08:06:08;;;;;;;42.92;25.08;;;;;;;11.42;68.59;100294.59;5031557;28;20041;-79
2022/03/27 08:08:34;;;;;;;46.15;23.80;;;;;;;11.48;69.21;100287.56;5012058;28;20099;-80
2022/03/27 08:11:00;;;;;;;39.92;23.38;;;;;;;11.54;68.85;100290.16;5005554;28;20433;-79
2022/03/27 08:13:25;;;;;;;42.28;23.38;;;;;;;11.54;68.57;100289.34;5024640;28;20022;-80
2022/03/27 08:15:51;;;;;;;39.85;23.42;;;;;;;11.53;68.28;100296.53;5013915;28;20045;-79
2022/03/27 08:18:16;;;;;;;39.10;23.60;;;;;;;11.60;68.46;100289.28;5026690;28;20052;-79
2022/03/27 08:20:42;;;;;;;40.80;25.88;;;;;;;11.62;68.43;100286.41;5009413;28;20049;-79
2022/03/27 08:23:07;;;;;;;42.50;24.67;;;;;;;11.67;68.63;100289.25;5030271;28;20030;-79
2022/03/27 08:28:20;;;;;;;44.38;26.17;;;;;;;11.71;68.46;100285.91;5030365;28;20048;-77
2022/03/27 08:30:49;;;;;;;43.50;25.17;;;;;;;11.72;68.31;100289.41;5023254;28;20034;-78
2022/03/27 08:33:16;;;;;;;37.03;22.92;;;;;;;11.77;68.45;100298.41;5031989;28;20091;-78
2022/03/27 08:35:46;;;;;;;40.92;24.20;;;;;;;11.76;68.89;100296.78;5023922;28;20053;-80
2022/03/27 08:38:13;;;;;;;52.30;24.98;;;;;;;11.82;68.67;100297.75;5009013;28;20021;-80
2022/03/27 08:40:40;;;;;;;38.50;23.17;;;;;;;11.81;68.74;100307.66;5011744;28;20034;-80
2022/03/27 08:43:10;;;;;;;42.95;24.15;;;;;;;11.81;68.38;100307.66;5028390;28;20029;-80
2022/03/27 08:45:36;;;;;;;43.38;25.70;;;;;;;11.84;68.85;100299.16;5025222;28;20030;-80
2022/03/27 08:48:03;;;;;;;38.92;24.25;;;;;;;11.89;68.18;100303.84;5010007;28;20031;-80
2022/03/27 08:50:34;;;;;;;39.63;24.95;;;;;;;11.90;68.48;100306.31;5005819;28;20033;-79
2022/03/27 08:53:05;;;;;;;36.67;23.48;;;;;;;11.91;68.43;100305.28;5030858;28;20028;-79
2022/03/27 08:55:42;;;;;;;44.35;26.13;;;;;;;11.96;68.34;100315.31;5013507;28;20073;-79
2022/03/27 08:58:09;;;;;;;44.70;26.17;;;;;;;12.01;68.55;100305.56;5025825;28;20036;-80
2022/03/27 09:00:35;;;;;;;43.63;25.27;;;;;;;12.02;68.44;100311.75;5025227;28;20498;-78
2022/03/27 09:03:02;;;;;;;39.88;24.27;;;;;;;12.02;68.49;100304.53;5002487;28;20124;-78
2022/03/27 09:05:28;;;;;;;42.45;25.95;;;;;;;12.02;68.33;100303.72;5003495;28;20041;-79
2022/03/27 09:07:57;;;;;;;39.33;24.15;;;;;;;12.01;68.23;100296.75;5007156;28;20076;-78
2022/03/27 09:10:27;;;;;;;45.88;26.48;;;;;;;12.18;68.31;100310.34;5027422;28;20049;-78
2022/03/27 09:12:53;;;;;;;47.90;27.13;;;;;;;12.17;69.00;100301.50;5028327;28;20072;-78
2022/03/27 09:15:23;;;;;;;48.38;26.05;;;;;;;12.19;68.48;100301.28;5023100;28;20037;-77
2022/03/27 09:18:08;;;;;;;40.88;24.50;;;;;;;12.19;68.51;100304.75;5014193;28;20095;-77
2022/03/27 09:20:43;;;;;;;40.38;24.75;;;;;;;12.27;68.04;100314.38;5026769;28;20043;-78
2022/03/27 09:23:18;;;;;;;46.95;24.90;;;;;;;12.29;68.28;100310.44;5029752;28;20502;-78
2022/03/27 09:29:34;;;;;;;45.40;25.70;;;;;;;12.32;68.65;100304.59;5023477;28;20072;-78
2022/03/27 09:32:39;;;;;;;43.30;25.40;;;;;;;12.42;68.56;100320.16;4981396;28;20068;-78
2022/03/27 09:35:19;;;;;;;41.83;25.10;;;;;;;12.37;68.49;100290.56;5014701;28;20053;-78
2022/03/27 09:37:46;;;;;;;45.60;24.40;;;;;;;12.47;68.10;100298.91;5011382;28;20884;-79
2022/03/27 09:40:13;;;;;;;43.20;25.00;;;;;;;12.45;67.78;100300.97;5009257;28;20036;-79
2022/03/27 09:42:40;;;;;;;47.58;25.77;;;;;;;12.46;67.83;100303.44;5030474;28;20018;-78
2022/03/27 09:45:23;;;;;;;43.75;24.52;;;;;;;12.55;68.06;100301.25;5029874;28;20040;-79
2022/03/27 09:48:34;;;;;;;37.47;23.52;;;;;;;12.67;67.73;100308.28;5029577;28;20041;-79
2022/03/27 09:51:00;;;;;;;43.90;24.92;;;;;;;12.61;68.08;100297.66;5006794;28;20037;-80
2022/03/27 09:53:29;;;;;;;39.45;23.83;;;;;;;12.63;67.82;100296.41;5025772;28;20064;-79
2022/03/27 09:55:57;;;;;;;39.05;24.73;;;;;;;12.79;67.49;100316.41;4992667;28;20033;-79
2022/03/27 09:58:36;;;;;;;44.03;23.42;;;;;;;12.78;67.77;100298.66;5021076;28;20030;-80
2022/03/27 10:01:11;;;;;;;38.42;22.67;;;;;;;12.80;67.64;100302.75;5009056;28;20052;-78
2022/03/27 10:03:59;;;;;;;40.28;24.25;;;;;;;12.84;67.15;100295.09;5028884;28;20110;-79
2022/03/27 10:06:34;;;;;;;41.38;22.25;;;;;;;12.99;67.01;100306.22;5025153;28;20037;-79
2022/03/27 10:09:11;;;;;;;38.17;24.07;;;;;;;12.99;67.38;100292.00;5025084;28;20042;-81
2022/03/27 10:11:38;;;;;;;38.22;24.08;;;;;;;12.99;67.21;100289.31;5025428;28;20365;-79
2022/03/27 10:14:05;;;;;;;40.95;23.90;;;;;;;13.05;66.72;100286.56;5008568;28;20033;-80
2022/03/27 10:16:34;;;;;;;34.75;21.98;;;;;;;13.13;66.34;100282.72;5027295;28;20108;-80
2022/03/27 10:19:06;;;;;;;38.35;24.35;;;;;;;13.26;66.38;100291.38;5012307;28;20487;-81
2022/03/27 10:21:32;;;;;;;36.80;22.25;;;;;;;13.21;66.47;100277.88;5011202;28;20033;-80
2022/03/27 10:24:19;;;;;;;37.38;23.08;;;;;;;13.46;65.95;100283.03;5012435;28;20473;-80
2022/03/27 10:26:45;;;;;;;36.92;22.52;;;;;;;13.45;65.55;100274.16;5008300;28;20060;-80
2022/03/27 10:29:12;;;;;;;37.97;22.13;;;;;;;13.60;65.96;100284.44;5000640;28;20037;-79
2022/03/27 10:31:38;;;;;;;34.92;21.55;;;;;;;13.69;65.09;100279.53;5029229;28;20022;-79
2022/03/27 10:34:06;;;;;;;34.72;21.45;;;;;;;13.72;65.23;100268.31;5027231;28;20050;-79
2022/03/27 10:37:00;;;;;;;31.48;21.00;;;;;;;13.83;65.17;100276.38;5031768;28;20079;-80
2022/03/27 10:39:45;;;;;;;32.40;20.58;;;;;;;13.87;64.86;100274.84;5030546;28;20037;-79
2022/03/27 10:42:19;;;;;;;31.05;20.60;;;;;;;13.91;65.36;100273.31;5028921;28;20036;-79
2022/03/27 10:45:00;;;;;;;33.67;20.73;;;;;;;13.98;65.12;100267.84;5027771;28;20030;-79
2022/03/27 10:47:28;;;;;;;30.63;20.52;;;;;;;13.97;64.70;100264.34;5023852;28;20048;-80
2022/03/27 10:50:04;;;;;;;32.70;20.10;;;;;;;14.06;64.93;100268.31;5026628;28;20398;-79
2022/03/27 10:52:52;;;;;;;30.52;20.20;;;;;;;14.11;64.82;100272.94;5028448;28;20036;-79
2022/03/27 10:55:18;;;;;;;25.77;17.13;;;;;;;14.12;64.54;100258.47;5016330;28;20041;-80
2022/03/27 10:57:46;;;;;;;33.78;21.15;;;;;;;14.19;64.86;100264.56;5013356;28;20048;-80
2022/03/27 11:00:13;;;;;;;30.48;20.50;;;;;;;14.21;65.18;100254.38;5029766;28;20021;-79
2022/03/27 11:02:47;;;;;;;26.85;18.50;;;;;;;14.27;65.03;100256.94;4978877;28;20932;-79
2022/03/27 11:05:36;;;;;;;28.30;18.67;;;;;;;14.35;64.38;100258.44;5033626;28;20371;-78
2022/03/27 11:08:16;;;;;;;33.95;19.35;;;;;;;14.42;64.58;100261.00;5026011;28;20498;-78
2022/03/27 11:10:49;;;;;;;29.55;19.27;;;;;;;14.47;64.97;100256.56;5008859;28;20041;-79
2022/03/27 11:13:27;;;;;;;29.05;18.13;;;;;;;14.83;63.60;100250.78;5027753;28;20580;-78
2022/03/27 11:16:05;;;;;;;31.52;18.83;;;;;;;15.05;63.61;100247.41;5031056;28;20065;-79
2022/03/27 11:18:39;;;;;;;25.77;16.83;;;;;;;15.18;63.85;100242.50;4993382;28;20025;-80
2022/03/27 11:21:06;;;;;;;23.60;16.85;;;;;;;15.39;62.48;100255.25;5032083;28;20037;-79
2022/03/27 11:23:35;;;;;;;23.33;16.48;;;;;;;15.50;62.12;100238.22;5029872;28;20501;-79
2022/03/27 11:26:03;;;;;;;23.95;17.08;;;;;;;15.48;62.11;100248.41;5033437;28;20036;-78